createdAt,value
2019-05-10T00:02:13.648Z,98075.47
2019-05-10T00:08:36.721Z,98074.88
2019-05-10T00:14:51.431Z,98091.31
2019-05-10T00:20:55.999Z,98089.47
2019-05-10T00:27:00.624Z,98095.13
2019-05-10T00:33:05.169Z,98096.63
2019-05-10T00:39:09.854Z,98107.81
2019-05-10T00:45:14.663Z,98109.16
2019-05-10T00:51:19.290Z,98105.69
2019-05-10T00:57:23.850Z,98123.31
2019-05-10T01:03:28.389Z,98120.55
2019-05-10T01:09:32.953Z,98119.03
2019-05-10T01:15:37.505Z,98133.06
2019-05-10T01:21:42.126Z,98138.98
2019-05-10T01:27:46.823Z,98142.42
2019-05-10T01:33:51.379Z,98148.28
2019-05-10T01:39:55.934Z,98146.49
2019-05-10T01:46:00.478Z,98150.73
2019-05-10T01:52:05.188Z,98153.03
2019-05-10T01:58:09.828Z,98158.50
2019-05-10T02:04:17.528Z,98171.17
2019-05-10T02:10:20.857Z,98167.60
2019-05-10T02:16:25.492Z,98176.67
2019-05-10T02:22:30.053Z,98175.12
2019-05-10T02:28:34.682Z,98181.51
2019-05-10T02:34:39.254Z,98177.81
2019-05-10T02:40:43.939Z,98177.81
2019-05-10T02:46:48.591Z,98184.77
2019-05-10T02:52:53.129Z,98191.38
2019-05-10T02:58:58.438Z,98197.09
2019-05-10T03:05:06.394Z,98206.89
2019-05-10T03:11:13.951Z,98208.70
2019-05-10T03:17:20.495Z,98217.81
2019-05-10T03:23:26.391Z,98228.09
2019-05-10T03:29:31.028Z,98238.31
2019-05-10T03:35:35.571Z,98241.91
2019-05-10T03:41:40.415Z,98248.62
2019-05-10T03:47:45.033Z,98250.68
2019-05-10T03:53:49.585Z,98255.73
2019-05-10T03:59:54.147Z,98267.08
2019-05-10T04:05:58.772Z,98273.10
2019-05-10T04:12:03.354Z,98274.81
2019-05-10T04:18:07.965Z,98284.17
2019-05-10T04:24:12.529Z,98287.50
2019-05-10T04:30:18.104Z,98293.84
2019-05-10T04:36:22.659Z,98290.95
2019-05-10T04:42:27.234Z,98293.78
2019-05-10T04:48:31.804Z,98300.43
2019-05-10T04:54:36.357Z,98322.08
2019-05-10T05:00:40.912Z,98320.00
2019-05-10T05:06:45.461Z,98321.67
2019-05-10T05:12:50.013Z,98316.47
2019-05-10T05:18:54.591Z,98323.50
2019-05-10T05:25:01.136Z,98325.66
2019-05-10T05:31:05.434Z,98325.17
2019-05-10T05:37:09.969Z,98327.26
2019-05-10T05:43:14.523Z,98336.45
2019-05-10T05:49:19.079Z,98341.95
2019-05-10T05:55:23.630Z,98353.70
2019-05-10T06:01:29.485Z,98354.13
2019-05-10T06:07:37.913Z,98366.03
2019-05-10T06:13:40.720Z,98365.53
2019-05-10T06:19:45.280Z,98376.52
2019-05-10T06:25:49.915Z,98388.31
2019-05-10T06:31:54.476Z,98391.69
2019-05-10T06:37:59.087Z,98399.64
2019-05-10T06:44:03.706Z,98400.87
2019-05-10T06:50:09.413Z,98408.58
2019-05-10T06:56:14.072Z,98396.08
2019-05-10T07:02:20.129Z,98402.99
2019-05-10T07:08:24.990Z,98411.67
2019-05-10T07:14:29.541Z,98410.77
2019-05-10T07:20:34.091Z,98405.02
2019-05-10T07:26:38.662Z,98411.33
2019-05-10T07:32:43.304Z,98410.42
2019-05-10T07:38:47.882Z,98406.91
2019-05-10T07:44:52.431Z,98416.14
2019-05-10T07:50:56.997Z,98422.94
2019-05-10T07:57:01.604Z,98432.80
2019-05-10T08:03:15.806Z,98438.83
2019-05-10T08:09:12.778Z,98441.27
2019-05-10T08:15:19.534Z,98441.81
2019-05-10T08:21:26.247Z,98451.72
2019-05-10T08:27:32.316Z,98460.63
2019-05-10T08:33:36.398Z,98473.76
2019-05-10T08:39:45.400Z,98491.86
2019-05-10T08:45:49.498Z,98500.05
2019-05-10T08:51:53.768Z,98507.94
2019-05-10T08:58:02.922Z,98493.39
2019-05-10T09:04:22.243Z,98523.07
2019-05-10T09:10:27.114Z,98526.50
2019-05-10T09:16:39.420Z,98534.90
2019-05-10T09:22:38.970Z,98542.92
2019-05-10T09:28:47.678Z,98549.82
2019-05-10T09:34:54.130Z,98559.17
2019-05-10T09:41:02.450Z,98569.11
2019-05-10T09:47:07.212Z,98569.92
2019-05-10T09:53:13.541Z,98575.68
2019-05-10T09:59:18.064Z,98588.08
2019-05-10T10:05:26.935Z,98586.77
2019-05-10T10:11:31.808Z,98600.39
2019-05-10T10:17:41.967Z,98598.87
2019-05-10T10:23:43.783Z,98617.39
2019-05-10T10:29:49.012Z,98615.04
2019-05-10T10:35:56.461Z,98614.15
2019-05-10T10:42:08.955Z,98619.27
2019-05-10T10:48:13.059Z,98620.28
2019-05-10T10:54:22.420Z,98623.51
2019-05-10T11:00:39.282Z,98630.36
2019-05-10T11:06:48.515Z,98633.10
2019-05-10T11:12:56.226Z,98638.23
2019-05-10T11:19:03.583Z,98637.57
2019-05-10T11:25:12.036Z,98639.99
2019-05-10T11:31:16.121Z,98649.81
2019-05-10T11:37:31.079Z,98652.45
2019-05-10T11:43:31.361Z,98656.05
2019-05-10T11:49:40.751Z,98650.81
2019-05-10T11:55:48.602Z,98648.76
2019-05-10T12:01:58.039Z,98659.87
2019-05-10T12:08:02.128Z,98663.58
2019-05-10T12:14:07.122Z,98672.48
2019-05-10T12:20:16.708Z,98676.64
2019-05-10T12:32:27.077Z,98675.05
2019-05-10T12:38:35.693Z,98676.48
2019-05-10T12:44:38.856Z,98664.88
2019-05-10T12:50:46.185Z,98663.00
2019-05-10T12:56:50.939Z,98692.83
2019-05-10T13:03:10.262Z,98715.61
2019-05-10T13:09:02.014Z,98729.41
2019-05-10T13:15:08.022Z,98728.83
2019-05-10T13:21:20.022Z,98720.64
2019-05-10T13:27:20.035Z,98726.16
2019-05-10T13:33:28.974Z,98729.23
2019-05-10T13:39:30.980Z,98729.12
2019-05-10T13:45:37.623Z,98738.92
2019-05-10T13:51:41.921Z,98748.52
2019-05-10T13:57:46.477Z,98752.42
2019-05-10T14:04:00.086Z,98751.28
2019-05-10T14:09:57.306Z,98749.28
2019-05-10T14:16:01.864Z,98755.91
2019-05-10T14:22:06.426Z,98791.33
2019-05-10T14:28:15.711Z,98805.56
2019-05-10T14:34:17.310Z,98807.36
2019-05-10T14:40:27.604Z,98804.58
2019-05-10T14:46:28.213Z,98803.95
2019-05-10T14:52:32.781Z,98801.95
2019-05-10T14:58:37.406Z,98803.18
2019-05-10T15:04:44.959Z,98805.52
2019-05-10T15:10:48.267Z,98808.73
2019-05-10T15:16:52.821Z,98821.47
2019-05-10T15:22:57.395Z,98826.70
2019-05-10T15:29:01.950Z,98835.72
2019-05-10T15:35:08.889Z,98840.12
2019-05-10T15:41:16.893Z,98850.30
2019-05-10T15:47:22.032Z,98871.83
2019-05-10T15:53:27.395Z,98865.77
2019-05-10T15:59:32.255Z,98863.97
2019-05-10T16:05:43.407Z,98868.45
2019-05-10T16:11:43.092Z,98861.98
2019-05-10T16:17:47.878Z,98880.09
2019-05-10T16:23:52.678Z,98892.48
2019-05-10T16:29:57.358Z,98893.52
2019-05-10T16:36:02.106Z,98876.62
2019-05-10T16:42:06.788Z,98876.32
2019-05-10T16:48:11.507Z,98889.51
2019-05-10T16:54:24.607Z,98888.58
2019-05-10T17:00:23.604Z,98887.66
2019-05-10T17:06:28.450Z,98893.04
2019-05-10T17:12:33.483Z,98889.66
2019-05-10T17:18:38.091Z,98895.27
2019-05-10T17:24:42.749Z,98896.45
2019-05-10T17:30:47.416Z,98893.59
2019-05-10T17:36:58.117Z,98899.14
2019-05-10T17:42:58.677Z,98900.62
2019-05-10T17:49:03.276Z,98895.12
2019-05-10T17:55:10.828Z,98899.50
2019-05-10T18:01:14.610Z,98896.17
2019-05-10T18:07:19.600Z,98902.13
2019-05-10T18:13:24.262Z,98898.05
2019-05-10T18:19:28.872Z,98910.59
2019-05-10T18:25:34.415Z,98903.41
2019-05-10T18:31:39.076Z,98914.98
2019-05-10T18:37:44.533Z,98924.17
2019-05-10T18:43:49.130Z,98908.23
2019-05-10T18:49:53.833Z,98910.94
2019-05-10T18:55:58.477Z,98923.45
2019-05-10T19:02:03.232Z,98914.30
2019-05-10T19:08:08.035Z,98915.92
2019-05-10T19:14:12.825Z,98924.52
2019-05-10T19:20:18.491Z,98928.09
2019-05-10T19:26:23.834Z,98928.98
2019-05-10T19:32:29.687Z,98933.34
2019-05-10T19:38:34.277Z,98939.98
2019-05-10T19:44:40.545Z,98943.06
2019-05-10T19:50:45.253Z,98942.73
2019-05-10T19:56:49.838Z,98950.88
2019-05-10T20:02:54.432Z,98960.73
2019-05-10T20:08:59.683Z,98968.22
2019-05-10T20:15:06.065Z,98968.19
2019-05-10T20:21:10.655Z,98967.78
2019-05-10T20:27:15.244Z,98976.02
2019-05-10T20:33:19.894Z,98972.17
2019-05-10T20:39:24.437Z,98970.91
2019-05-10T20:45:28.994Z,98976.48
2019-05-10T20:51:33.596Z,98968.69
2019-05-10T20:57:38.213Z,98969.14
2019-05-10T21:03:42.863Z,98981.38
2019-05-10T21:09:47.598Z,98986.98
2019-05-10T21:15:52.133Z,98993.27
2019-05-10T21:21:56.689Z,98994.44
2019-05-10T21:28:01.246Z,98997.05
2019-05-10T21:34:09.559Z,99005.95
2019-05-10T21:40:12.646Z,98999.94
2019-05-10T21:46:17.215Z,98994.92
2019-05-10T21:52:21.834Z,98987.39
2019-05-10T21:58:26.437Z,98987.53
2019-05-10T22:04:30.976Z,98958.55
2019-05-10T22:10:35.538Z,98964.85
2019-05-10T22:16:40.108Z,98980.78
2019-05-10T22:22:44.667Z,98973.92
2019-05-10T22:28:49.209Z,98961.92
2019-05-10T22:34:53.735Z,98979.63
2019-05-10T22:40:58.286Z,98975.27
2019-05-10T22:47:02.837Z,98951.56
2019-05-10T22:53:07.471Z,98977.97
2019-05-10T22:59:12.090Z,98995.13
2019-05-10T23:05:16.863Z,98982.22
2019-05-10T23:11:21.409Z,98959.98
2019-05-10T23:17:25.977Z,98959.44
2019-05-10T23:23:30.522Z,98978.61
2019-05-10T23:29:35.689Z,98979.77
2019-05-10T23:35:40.244Z,98962.06
2019-05-10T23:41:44.867Z,98956.78
2019-05-10T23:47:49.429Z,98975.61
2019-05-10T23:53:54.020Z,98983.46
2019-05-10T23:59:58.572Z,98953.38
